< < Back
Terminal Aerodrome Forecast


Current Version              Previous Versions:   1  2  3  4  5  6  7  8  9  

Terminal Aerodrome Forecast

025
FTUS42 KCAE 282150 AAA
TAFCAE
TAF AMD
KCAE 282150Z 2822/2918 10008KT P6SM SCT040
     FM290100 09003KT P6SM BKN250
     FM291500 08008KT P6SM SCT040 BKN250=



Latest METAR

447
SAUS80 KWBC 290600
MTRCAE
METAR KCAE 290556Z 00000KT 10SM SCT150 22/17 A3016 RMK AO2 SLP210
T02170167 10272 20194 50000


USA.gov is the U.S. government's official web portal to all federal, state and local government web resources and services.